Aviation Digital Data Service (ADDS)

Output produced by TAFs form (1124 UTC 21 April 2018)
found at http://aviationweather.gov/adds/tafs/
 
KVEL 210959Z 2110/2206 VRB04KT P6SM VCFG SCT100 BKN120 
     TEMPO 2110/2114 2SM BR BKN002 
     FM211400 VRB03KT 3SM BR SCT002 SCT009 BKN080 
     FM211600 12005KT P6SM FEW060 SCT150 
     FM212300 05006KT P6SM FEW090 FEW200 
     FM220200 31004KT P6SM FEW080 FEW200